Date,TemperatureHighF,TemperatureAvgF,TemperatureLowF,DewpointHighF,DewpointAvgF,DewpointLowF,HumidityHigh,HumidityAvg,HumidityLow,PressureMaxIn,PressureMinIn,WindSpeedMaxMPH,WindSpeedAvgMPH,GustSpeedMaxMPH,PrecipitationSumIn
2013-9-1,94.6,79.2,74.5,77.6,72.7,69.9,88,81,54,30.00,29.94,4,0,10,0.02
2013-9-2,93.0,77.5,72.3,77.7,72.2,69.1,91,84,61,30.02,29.92,9,0,18,1.62
2013-9-3,90.5,79.6,73.5,77.6,73.6,70.7,91,83,63,30.02,29.94,2,0,9,0.00
2013-9-4,88.6,81.2,75.9,79.1,75.8,72.8,90,84,69,30.08,29.97,2,0,8,0.00
2013-9-5,90.2,82.8,77.8,79.5,76.9,74.6,90,83,71,30.08,30.01,1,0,9,0.00
2013-9-6,91.2,81.4,76.2,78.7,75.5,73.1,90,83,64,30.05,29.96,1,0,10,0.01
2013-9-7,89.0,79.2,74.3,78.4,74.1,70.8,91,85,69,30.00,29.92,2,0,5,0.01
2013-9-8,87.7,79.2,73.0,77.7,73.1,70.2,91,82,69,29.97,29.87,1,0,8,0.08
2013-9-9,88.0,79.9,74.2,76.8,73.5,71.1,91,81,68,30.02,29.92,2,0,13,0.26
2013-9-10,87.6,81.5,75.8,76.7,73.5,70.3,85,77,65,30.08,29.98,8,1,15,0.04
2013-9-11,87.1,80.6,75.8,76.9,73.9,71.3,88,80,67,30.07,30.00,5,0,11,0.00
2013-9-12,84.3,77.4,74.5,76.5,73.2,71.4,90,87,71,30.02,29.91,3,0,15,0.02
2013-9-13,92.9,79.4,72.7,76.2,72.7,69.6,90,81,56,29.92,29.81,2,0,9,0.00
2013-9-14,92.9,80.6,75.1,78.2,74.9,71.6,89,83,61,29.97,29.83,1,0,7,0.80
2013-9-15,88.1,80.1,73.8,79.4,75.0,70.4,89,85,72,30.08,29.95,6,0,14,0.26
2013-9-16,85.7,76.7,74.0,78.4,72.7,70.8,90,88,78,30.06,29.99,10,0,16,0.04
2013-9-17,84.3,76.0,73.5,76.6,72.0,70.1,89,87,74,30.06,29.96,2,0,17,1.31
2013-9-18,85.5,77.7,73.6,76.9,72.7,70.2,89,85,72,30.02,29.94,4,0,18,0.42
2013-9-19,83.7,77.4,74.5,76.3,72.5,69.7,88,85,74,30.03,29.95,3,0,15,0.89
2013-9-20,85.9,78.0,71.2,71.4,69.5,67.6,89,76,59,30.02,29.91,1,0,14,0.00
2013-9-21,86.8,78.6,71.9,73.2,71.0,68.2,88,78,61,29.93,29.78,1,0,8,0.00
2013-9-22,92.2,80.9,73.9,76.5,73.0,69.8,88,78,59,29.86,29.75,6,1,13,0.00
2013-9-23,89.5,78.1,74.8,77.6,72.9,71.0,88,85,64,29.98,29.84,4,0,14,0.95
2013-9-24,86.0,76.9,74.5,79.9,72.5,70.4,88,86,79,29.97,29.85,6,0,11,0.14
2013-9-25,84.8,78.1,73.7,75.5,71.4,69.6,87,81,64,29.87,29.78,5,1,15,0.00
2013-9-26,89.3,80.7,74.7,78.5,74.2,70.6,87,81,64,29.84,29.76,6,1,21,0.00
2013-9-27,86.5,77.0,70.9,75.5,70.7,66.8,87,81,65,29.94,29.83,3,0,14,0.00
2013-9-28,84.3,77.8,72.6,75.7,70.7,68.2,87,79,68,29.98,29.90,8,0,13,0.11
2013-9-29,85.5,77.7,70.5,74.6,70.0,66.1,87,78,64,29.97,29.90,1,0,8,0.00
2013-9-30,86.9,77.5,70.2,74.2,70.3,65.8,86,79,64,30.02,29.92,2,0,8,0.00